This is the latest recevied weather packets stored in our database for station/object KD4WXI. If no packets are shown the sender has not sent any weather packets the latest 10 day(s).
| Time | Temp. | Humidity | Pressure | Rain* | Wind** | Luminosity | Snow |
|---|---|---|---|---|---|---|---|
| 1777899549 | 12.78° C | 76% | 1017.6 hPa | 0 mm | - | 272 W/m² | - |
| 1777899246 | 12.22° C | 80% | 1017.9 hPa | 0 mm | - | 256 W/m² | - |
| 1777898944 | 11.67° C | 81% | 1017.9 hPa | 0 mm | - | 243 W/m² | - |
| 1777898640 | 11.67° C | 81% | 1018 hPa | 0 mm | - | 81 W/m² | - |
| 1777898338 | 10.56° C | 84% | 1017.9 hPa | 0 mm | - | 101 W/m² | - |
| 1777898035 | 10.56° C | 85% | 1017.8 hPa | 0 mm | - | 44 W/m² | - |
| 1777897731 | 10° C | 85% | 1018.2 hPa | 0 mm | - | 89 W/m² | - |
| 1777897428 | 10° C | 84% | 1018.1 hPa | 0 mm | - | 126 W/m² | - |
| 1777897124 | 9.44° C | 85% | 1017.9 hPa | 0 mm | - | 111 W/m² | - |
| 1777896820 | 8.89° C | 87% | 1017.7 hPa | 0 mm | - | 38 W/m² | - |
| 1777896518 | 8.33° C | 88% | 1017.9 hPa | 0 mm | - | 34 W/m² | - |
| 1777896215 | 7.78° C | 89% | 1017.8 hPa | 0 mm | - | 34 W/m² | - |
| 1777895912 | 8.33° C | 88% | 1017.7 hPa | 0 mm | - | 55 W/m² | - |
| 1777895610 | 7.22° C | 94% | 1017.7 hPa | 0 mm | - | 65 W/m² | - |
| 1777895307 | 6.11° C | 98% | 1018 hPa | 0 mm | - | 60 W/m² | - |
| 1777895005 | 5.56° C | 99% | 1018 hPa | 0 mm | - | 53 W/m² | - |
| 1777894702 | 5.56° C | 99% | 1017.8 hPa | 0 mm | - | 32 W/m² | - |
| 1777894398 | 5° C | 99% | 1017.8 hPa | 0 mm | - | 30 W/m² | - |
| 1777894096 | 3.89° C | 99% | 1017.6 hPa | 0 mm | - | 25 W/m² | - |
| 1777893793 | 3.89° C | 99% | 1017.4 hPa | 0 mm | - | 25 W/m² | - |
| 1777893489 | 3.89° C | 99% | 1017.7 hPa | 0 mm | - | 20 W/m² | - |
| 1777893186 | 3.33° C | 99% | 1017.7 hPa | 0 mm | - | 18 W/m² | - |
| 1777892882 | 2.78° C | 99% | 1017.7 hPa | 0 mm | - | 18 W/m² | - |
| 1777892579 | 2.78° C | 99% | 1017.7 hPa | 0 mm | - | 15 W/m² | - |
| 1777892274 | 2.78° C | 99% | 1017.7 hPa | 0 mm | - | 13 W/m² | - |
* Rain latest hour (hover to see other rain measurements)
** Current wind speed in m/s (hover to see current wind gust speed)